Bangkok, Thailand
Current Conditions -  °F | °C
As of 3:00 PM on Saturday 20 Dec 2014 (Local Time) from VTBD Reporting Station
Clear Clear  
Wind Chill: 86°   Ceiling: Unl
Heat Index: 87°   Visibility: 6mi
Dew Point: 64°   Wind: 6mph
Humidity: 48%   Direction: 70°ENE
Pressure: 29.85"   Gusts: NA
Location:  13.73°N, 100.5°E
Report Text: VTBD 200800Z 07005KT 350V150 CAVOK 30/18 Q1011 NOSIG
Loading
Personal Weather Stations






























Interactive Weather Map New forecast layout! Learn more

10-Day Weather Forecast

Advertisements
Track Severe Weather on mobile